Time;durP1;ratioP1;P1;durP2;ratioP2;P2;SDS_P1;SDS_P2;PMS_P1;PMS_P2;Temp;Humidity;BMP_temperature;BMP_pressure;BME280_temperature;BME280_humidity;BME280_pressure;Samples;Min_cycle;Max_cycle;Signal;HPM_P1;HPM_P2
2022/11/09 00:00:35;;;;;;;19.17;13.63;;;15.90;99.90;;;;;;4589218;19;20030;-23
2022/11/09 00:02:06;;;;;;;19.30;13.20;;;15.90;99.90;;;;;;4589101;19;20015;-23
2022/11/09 00:03:37;;;;;;;17.73;13.02;;;15.90;99.90;;;;;;4589859;19;20019;-22
2022/11/09 00:05:08;;;;;;;16.83;13.15;;;15.90;99.90;;;;;;4589078;19;20006;-24
2022/11/09 00:06:40;;;;;;;17.83;12.80;;;15.90;99.90;;;;;;4589201;19;20022;-23
2022/11/09 00:08:11;;;;;;;18.27;13.52;;;15.90;99.90;;;;;;4590679;19;20086;-22
2022/11/09 00:09:42;;;;;;;18.85;14.07;;;15.90;99.90;;;;;;4591761;19;19998;-22
2022/11/09 00:11:13;;;;;;;17.27;13.40;;;15.90;99.90;;;;;;4591063;19;20015;-23
2022/11/09 00:12:44;;;;;;;18.15;13.13;;;15.90;99.90;;;;;;4590714;19;20025;-22
2022/11/09 00:14:16;;;;;;;17.65;13.23;;;15.90;99.90;;;;;;4591515;19;20337;-24
2022/11/09 00:15:47;;;;;;;17.65;13.70;;;15.90;99.90;;;;;;4591637;19;20010;-23
2022/11/09 00:17:18;;;;;;;20.10;13.95;;;15.90;99.90;;;;;;4590978;19;20114;-23
2022/11/09 00:18:50;;;;;;;17.52;12.88;;;15.90;99.90;;;;;;4591044;19;20011;-24
2022/11/09 00:20:21;;;;;;;19.23;13.90;;;15.90;99.90;;;;;;4591831;19;20233;-22
2022/11/09 00:21:52;;;;;;;17.63;13.13;;;15.90;99.90;;;;;;4590734;19;20014;-23
2022/11/09 00:23:24;;;;;;;16.67;13.13;;;15.90;99.90;;;;;;4589851;19;20029;-24
2022/11/09 00:24:55;;;;;;;20.00;13.80;;;15.80;99.90;;;;;;4590403;19;20491;-22
2022/11/09 00:26:26;;;;;;;16.83;13.15;;;15.90;99.90;;;;;;4591096;19;20017;-22
2022/11/09 00:27:57;;;;;;;;;;;15.80;99.90;;;;;;4590330;19;20459;-25
2022/11/09 00:29:29;;;;;;;18.70;13.77;;;15.90;99.90;;;;;;4590389;19;20268;-27
2022/11/09 00:31:01;;;;;;;17.83;13.45;;;15.80;99.90;;;;;;4589714;19;20066;-23
2022/11/09 00:32:31;;;;;;;;;;;15.80;99.90;;;;;;4590987;19;20061;-24
2022/11/09 00:34:03;;;;;;;20.50;14.93;;;15.80;99.90;;;;;;4590215;19;19933;-23
2022/11/09 00:35:37;;;;;;;23.95;15.43;;;15.80;99.90;;;;;;4590713;19;20086;-24
2022/11/09 00:37:08;;;;;;;22.58;14.88;;;15.80;99.90;;;;;;4589384;19;20021;-22
2022/11/09 00:38:39;;;;;;;23.48;15.20;;;15.80;99.90;;;;;;4589619;19;20010;-23
2022/11/09 00:40:10;;;;;;;22.25;15.07;;;15.80;99.90;;;;;;4590237;19;20014;-23
2022/11/09 00:41:42;;;;;;;;;;;15.80;99.90;;;;;;4591497;19;20070;-22
2022/11/09 00:43:13;;;;;;;21.48;14.93;;;15.80;99.90;;;;;;4591079;19;20324;-23
2022/11/09 00:44:44;;;;;;;20.55;15.32;;;15.80;99.90;;;;;;4589293;19;20075;-22
2022/11/09 00:46:15;;;;;;;20.65;15.38;;;15.80;99.90;;;;;;4589067;19;20053;-23
2022/11/09 00:47:47;;;;;;;23.08;16.33;;;15.80;99.90;;;;;;4589954;19;20021;-23
2022/11/09 00:49:18;;;;;;;23.35;16.42;;;15.80;99.90;;;;;;4590356;19;20011;-23
2022/11/09 00:50:52;;;;;;;21.65;15.70;;;15.80;99.90;;;;;;4590256;19;20018;-23
2022/11/09 00:52:24;;;;;;;21.92;15.60;;;15.80;99.90;;;;;;4590263;19;20010;-24
2022/11/09 00:53:56;;;;;;;20.80;15.75;;;15.80;99.90;;;;;;4589184;19;20362;-23
2022/11/09 00:55:27;;;;;;;22.70;15.35;;;15.80;99.90;;;;;;4590300;19;20006;-23
2022/11/09 00:56:58;;;;;;;21.83;14.68;;;15.80;99.90;;;;;;4590107;19;20031;-23
2022/11/09 00:58:31;;;;;;;19.77;13.90;;;15.80;99.90;;;;;;4590624;19;20007;-22
2022/11/09 01:00:03;;;;;;;19.65;14.52;;;15.80;99.90;;;;;;4590845;19;20011;-23
2022/11/09 01:01:34;;;;;;;20.35;13.80;;;15.80;99.90;;;;;;4589902;19;20014;-22
2022/11/09 01:03:05;;;;;;;19.73;15.57;;;15.80;99.90;;;;;;4590091;19;20023;-23
2022/11/09 01:04:36;;;;;;;19.25;14.85;;;15.80;99.90;;;;;;4590547;19;20341;-22
2022/11/09 01:06:08;;;;;;;20.13;14.88;;;15.80;99.90;;;;;;4589069;19;20014;-24
2022/11/09 01:07:39;;;;;;;21.02;14.15;;;15.80;99.90;;;;;;4589479;19;20014;-22
2022/11/09 01:09:10;;;;;;;19.27;14.43;;;15.80;99.90;;;;;;4589050;19;20495;-23
2022/11/09 01:10:43;;;;;;;19.45;14.82;;;15.80;99.90;;;;;;4589586;19;20021;-22
2022/11/09 01:12:15;;;;;;;20.80;16.00;;;15.80;99.90;;;;;;4590556;19;20006;-22
2022/11/09 01:13:46;;;;;;;16.25;13.18;;;15.80;99.90;;;;;;4588869;19;20014;-23
2022/11/09 01:15:17;;;;;;;19.88;16.02;;;15.80;99.90;;;;;;4590107;19;20066;-23
2022/11/09 01:16:48;;;;;;;19.85;14.70;;;15.70;99.90;;;;;;4590497;19;20021;-22
2022/11/09 01:18:19;;;;;;;19.77;14.32;;;15.80;99.90;;;;;;4590539;19;20007;-23
2022/11/09 01:19:50;;;;;;;18.92;13.73;;;15.70;99.90;;;;;;4589685;19;20017;-23
2022/11/09 01:21:22;;;;;;;19.35;14.60;;;15.70;99.90;;;;;;4589916;19;20523;-23
2022/11/09 01:22:53;;;;;;;19.52;14.10;;;15.80;99.90;;;;;;4590505;19;20017;-25
2022/11/09 01:24:24;;;;;;;;;;;15.70;99.90;;;;;;4590538;19;20014;-26
2022/11/09 01:25:59;;;;;;;20.05;15.50;;;15.70;99.90;;;;;;4589910;19;20317;-25
2022/11/09 01:27:31;;;;;;;22.95;16.65;;;15.80;99.90;;;;;;4590147;19;20018;-22
2022/11/09 01:29:02;;;;;;;19.38;15.07;;;15.70;99.90;;;;;;4588705;19;20515;-23
2022/11/09 01:30:35;;;;;;;18.73;15.00;;;15.70;99.90;;;;;;4588889;19;20686;-22
2022/11/09 01:32:06;;;;;;;21.75;14.73;;;15.70;99.90;;;;;;4588920;19;20015;-25
2022/11/09 01:33:37;;;;;;;20.17;15.43;;;15.70;99.90;;;;;;4588101;19;20015;-26
2022/11/09 01:35:08;;;;;;;21.75;15.55;;;15.70;99.90;;;;;;4589917;19;20468;-25
2022/11/09 01:36:39;;;;;;;22.63;16.00;;;15.70;99.90;;;;;;4589595;19;20095;-22
2022/11/09 01:38:10;;;;;;;22.20;15.77;;;15.70;99.90;;;;;;4589673;19;20011;-23
2022/11/09 01:39:41;;;;;;;21.25;16.15;;;15.70;99.90;;;;;;4590030;19;20011;-22
2022/11/09 01:41:21;;;;;;;20.58;15.35;;;15.70;99.90;;;;;;4588269;19;20010;-25
2022/11/09 01:42:52;;;;;;;20.77;15.23;;;15.70;99.90;;;;;;4589288;19;20015;-23
2022/11/09 01:44:26;;;;;;;22.10;15.75;;;15.70;99.90;;;;;;4589884;19;20062;-22
2022/11/09 01:46:08;;;;;;;19.17;14.98;;;15.70;99.90;;;;;;4588196;19;20364;-23
2022/11/09 01:47:39;;;;;;;20.10;16.42;;;15.70;99.90;;;;;;4588134;19;20014;-22
2022/11/09 01:49:33;;;;;;;21.17;15.95;;;15.70;99.90;;;;;;4588152;19;20026;-23
2022/11/09 01:51:11;;;;;;;19.65;15.25;;;15.70;99.90;;;;;;4590332;19;20035;-26
2022/11/09 01:52:43;;;;;;;19.83;15.18;;;15.70;99.90;;;;;;4593608;19;20070;-22
2022/11/09 01:54:18;;;;;;;19.98;16.00;;;15.70;99.90;;;;;;4593055;19;20021;-22
2022/11/09 01:55:51;;;;;;;22.98;15.52;;;15.70;99.90;;;;;;4593168;19;20011;-23
2022/11/09 01:57:29;;;;;;;20.38;15.25;;;15.70;99.90;;;;;;4592554;19;20016;-23
2022/11/09 01:59:17;;;;;;;19.77;14.90;;;15.70;99.90;;;;;;4592880;19;20014;-22
2022/11/09 02:00:48;;;;;;;18.75;15.43;;;15.70;99.90;;;;;;4592869;19;20010;-22
2022/11/09 02:02:19;;;;;;;21.20;15.77;;;15.70;99.90;;;;;;4593320;19;20014;-23
2022/11/09 02:03:56;;;;;;;19.95;14.27;;;15.70;99.90;;;;;;4593691;19;20006;-24
2022/11/09 02:05:29;;;;;;;20.92;16.17;;;15.70;99.90;;;;;;4592160;19;20014;-22
2022/11/09 02:07:01;;;;;;;22.17;16.02;;;15.70;99.90;;;;;;4591985;19;20022;-22
2022/11/09 02:08:32;;;;;;;19.33;15.32;;;15.70;99.90;;;;;;4593065;19;20015;-23
2022/11/09 02:10:07;;;;;;;23.08;15.50;;;15.70;99.90;;;;;;4591813;19;20364;-22
2022/11/09 02:11:38;;;;;;;19.85;15.88;;;15.70;99.90;;;;;;4591783;19;20031;-22
2022/11/09 02:13:09;;;;;;;20.35;15.73;;;15.70;99.90;;;;;;4592089;19;20374;-22
2022/11/09 02:14:40;;;;;;;20.77;16.63;;;15.70;99.90;;;;;;4592460;19;20376;-23
2022/11/09 02:16:12;;;;;;;20.83;16.05;;;15.70;99.90;;;;;;4592332;19;20002;-23
2022/11/09 02:17:43;;;;;;;18.83;14.57;;;15.70;99.90;;;;;;4592391;19;20014;-22
2022/11/09 02:19:14;;;;;;;21.40;15.90;;;15.70;99.90;;;;;;4593469;19;20030;-23
2022/11/09 02:20:50;;;;;;;20.20;15.10;;;15.70;99.90;;;;;;4592787;19;20032;-27
2022/11/09 02:22:21;;;;;;;19.67;14.82;;;15.70;99.90;;;;;;4592129;19;20015;-23
2022/11/09 02:23:52;;;;;;;23.27;17.08;;;15.70;99.90;;;;;;4592861;19;20033;-23
2022/11/09 02:25:23;;;;;;;21.02;16.00;;;15.70;99.90;;;;;;4592700;19;20058;-24
2022/11/09 02:26:54;;;;;;;20.65;15.77;;;15.70;99.90;;;;;;4592859;19;20423;-24
2022/11/09 02:28:25;;;;;;;22.52;16.60;;;15.70;99.90;;;;;;4593302;19;20011;-22
2022/11/09 02:29:56;;;;;;;21.10;15.75;;;15.70;99.90;;;;;;4593301;19;20018;-24
2022/11/09 02:31:31;;;;;;;19.67;15.60;;;15.70;99.90;;;;;;4592882;19;20009;-23
2022/11/09 02:33:02;;;;;;;20.08;15.13;;;15.70;99.90;;;;;;4591242;19;20027;-24
2022/11/09 02:34:33;;;;;;;19.73;15.30;;;15.70;99.90;;;;;;4592634;19;20010;-24
2022/11/09 02:36:04;;;;;;;23.35;17.13;;;15.70;99.90;;;;;;4593261;19;20441;-23
2022/11/09 02:37:46;;;;;;;22.27;15.98;;;15.70;99.90;;;;;;4592498;19;20103;-22
2022/11/09 02:39:19;;;;;;;21.50;16.08;;;15.70;99.90;;;;;;4592662;19;20014;-22
2022/11/09 02:40:50;;;;;;;18.77;15.25;;;15.70;99.90;;;;;;4592018;19;20014;-22
2022/11/09 02:42:21;;;;;;;20.75;15.80;;;15.70;99.90;;;;;;4591815;19;20360;-22
2022/11/09 02:43:52;;;;;;;;;;;15.70;99.90;;;;;;4592830;19;20014;-23
2022/11/09 02:45:23;;;;;;;22.52;16.08;;;15.70;99.90;;;;;;4591572;19;19953;-23
2022/11/09 02:46:55;;;;;;;19.00;15.57;;;15.60;99.90;;;;;;4591651;19;20354;-22
2022/11/09 02:48:26;;;;;;;21.73;16.15;;;15.60;99.90;;;;;;4591042;19;20010;-22
2022/11/09 02:49:57;;;;;;;19.35;15.32;;;15.60;99.90;;;;;;4592633;19;20369;-23
2022/11/09 02:51:28;;;;;;;21.85;16.38;;;15.70;99.90;;;;;;4592748;19;20010;-25
2022/11/09 02:52:59;;;;;;;20.45;15.98;;;15.70;99.90;;;;;;4592353;19;20354;-23
2022/11/09 02:54:30;;;;;;;21.75;15.38;;;15.70;99.90;;;;;;4593575;19;20007;-24
2022/11/09 02:56:01;;;;;;;22.25;16.15;;;15.60;99.90;;;;;;4592650;19;20010;-22
2022/11/09 02:57:32;;;;;;;21.88;17.48;;;15.60;99.90;;;;;;4592550;19;20010;-22
2022/11/09 02:59:03;;;;;;;23.38;17.02;;;15.60;99.90;;;;;;4592819;19;20409;-23
2022/11/09 03:00:34;;;;;;;21.20;16.83;;;15.70;99.90;;;;;;4591886;19;20467;-22
2022/11/09 03:02:06;;;;;;;21.05;15.45;;;15.60;99.90;;;;;;4591179;19;20026;-23
2022/11/09 03:03:37;;;;;;;19.92;15.50;;;15.60;99.90;;;;;;4591545;19;20017;-23
2022/11/09 03:05:08;;;;;;;21.00;15.50;;;15.60;99.90;;;;;;4591338;19;20328;-23
2022/11/09 03:06:39;;;;;;;21.30;17.00;;;15.60;99.90;;;;;;4592805;19;20471;-23
2022/11/09 03:08:11;;;;;;;22.15;16.17;;;15.70;99.90;;;;;;4592634;19;20011;-22
2022/11/09 03:09:42;;;;;;;23.30;15.48;;;15.60;99.90;;;;;;4592323;19;20048;-25
2022/11/09 03:11:13;;;;;;;19.42;15.57;;;15.60;99.90;;;;;;4593046;19;20041;-22
2022/11/09 03:12:44;;;;;;;18.48;15.05;;;15.60;99.90;;;;;;4591839;19;20505;-24
2022/11/09 03:14:15;;;;;;;20.13;16.08;;;15.60;99.90;;;;;;4592312;19;20026;-24
2022/11/09 03:15:46;;;;;;;19.80;16.27;;;15.60;99.90;;;;;;4592267;19;20379;-23
2022/11/09 03:17:17;;;;;;;20.15;15.55;;;15.60;99.90;;;;;;4592984;19;20010;-23
2022/11/09 03:18:48;;;;;;;18.92;15.30;;;15.60;99.90;;;;;;4592097;19;20029;-23
2022/11/09 03:20:20;;;;;;;21.85;16.23;;;15.60;99.90;;;;;;4592634;19;20018;-25
2022/11/09 03:21:51;;;;;;;21.50;16.70;;;15.60;99.90;;;;;;4591025;19;20054;-23
2022/11/09 03:23:22;;;;;;;17.92;15.07;;;15.60;99.90;;;;;;4592385;19;20440;-23
2022/11/09 03:24:53;;;;;;;21.23;16.50;;;15.60;99.90;;;;;;4591990;19;20025;-23
2022/11/09 03:26:24;;;;;;;23.38;16.92;;;15.60;99.90;;;;;;4592105;19;20011;-22
2022/11/09 03:27:57;;;;;;;21.67;15.82;;;15.60;99.90;;;;;;4591865;19;20010;-24
2022/11/09 03:29:28;;;;;;;20.20;15.88;;;15.60;99.90;;;;;;4591893;19;20011;-23
2022/11/09 03:30:59;;;;;;;18.98;15.55;;;15.70;99.90;;;;;;4591930;19;20010;-23
2022/11/09 03:32:30;;;;;;;20.52;16.15;;;15.60;99.90;;;;;;4592466;19;20066;-23
2022/11/09 03:34:01;;;;;;;20.70;14.82;;;15.60;99.90;;;;;;4592424;19;20031;-23
2022/11/09 03:35:32;;;;;;;17.73;14.88;;;15.70;99.90;;;;;;4590566;19;20047;-23
2022/11/09 03:37:03;;;;;;;19.00;15.13;;;15.70;99.90;;;;;;4591372;19;20025;-22
2022/11/09 03:38:35;;;;;;;19.25;16.20;;;15.60;99.90;;;;;;4593981;19;20089;-23
2022/11/09 03:40:06;;;;;;;19.42;16.10;;;15.60;99.90;;;;;;4592027;19;20018;-24
2022/11/09 03:41:38;;;;;;;20.52;16.60;;;15.60;99.90;;;;;;4591770;19;20017;-26
2022/11/09 03:43:09;;;;;;;20.80;16.25;;;15.60;99.90;;;;;;4592107;19;20011;-23
2022/11/09 03:44:40;;;;;;;19.50;15.88;;;15.60;99.90;;;;;;4591014;19;19995;-23
2022/11/09 03:46:11;;;;;;;17.75;15.70;;;15.60;99.90;;;;;;4592086;19;20007;-23
2022/11/09 03:47:43;;;;;;;19.67;16.10;;;15.60;99.90;;;;;;4589017;19;20014;-25
2022/11/09 03:49:14;;;;;;;;;;;15.60;99.90;;;;;;4592521;19;20021;-23
2022/11/09 03:50:45;;;;;;;21.30;16.43;;;15.60;99.90;;;;;;4592603;19;19915;-23
2022/11/09 03:52:16;;;;;;;20.73;16.63;;;15.60;99.90;;;;;;4591489;19;20108;-23
2022/11/09 03:53:47;;;;;;;20.55;16.13;;;15.70;99.90;;;;;;4590280;19;20006;-22
2022/11/09 03:55:18;;;;;;;20.52;15.73;;;15.70;99.90;;;;;;4590717;19;20007;-22
2022/11/09 03:56:50;;;;;;;18.35;15.13;;;15.60;99.90;;;;;;4591614;19;20011;-22
2022/11/09 03:58:21;;;;;;;19.98;15.77;;;15.60;99.90;;;;;;4591384;19;20015;-23
2022/11/09 03:59:52;;;;;;;20.50;16.30;;;15.60;99.90;;;;;;4590158;19;20019;-22
2022/11/09 04:01:23;;;;;;;18.20;15.38;;;15.60;99.90;;;;;;4590762;19;19999;-23
2022/11/09 04:02:54;;;;;;;19.95;16.27;;;15.60;99.90;;;;;;4591518;19;20015;-22
2022/11/09 04:04:25;;;;;;;20.13;16.15;;;15.60;99.90;;;;;;4591037;19;20384;-22
2022/11/09 04:05:59;;;;;;;20.00;15.32;;;15.60;99.90;;;;;;4590089;19;20035;-23
2022/11/09 04:07:30;;;;;;;20.17;16.27;;;15.60;99.90;;;;;;4591129;19;20035;-23
2022/11/09 04:09:01;;;;;;;21.27;16.58;;;15.60;99.90;;;;;;4592039;19;20085;-22
2022/11/09 04:10:33;;;;;;;20.05;15.32;;;15.60;99.90;;;;;;4591481;19;20027;-22
2022/11/09 04:12:04;;;;;;;21.52;15.73;;;15.60;99.90;;;;;;4591340;19;20013;-23
2022/11/09 04:13:35;;;;;;;23.10;16.40;;;15.60;99.90;;;;;;4587154;19;20003;-22
2022/11/09 04:15:07;;;;;;;21.58;16.05;;;15.60;99.90;;;;;;4590593;19;20049;-23
2022/11/09 04:16:38;;;;;;;19.17;15.98;;;15.60;99.90;;;;;;4589656;19;20044;-24
2022/11/09 04:18:11;;;;;;;21.60;16.73;;;15.60;99.90;;;;;;4590938;19;20023;-24
2022/11/09 04:19:42;;;;;;;19.30;16.35;;;15.60;99.90;;;;;;4591091;19;20006;-25
2022/11/09 04:21:14;;;;;;;22.08;16.83;;;15.60;99.90;;;;;;4590994;19;20364;-23
2022/11/09 04:22:45;;;;;;;22.85;17.10;;;15.60;99.90;;;;;;4591349;19;20014;-25
2022/11/09 04:24:16;;;;;;;20.95;16.85;;;15.60;99.90;;;;;;4589667;19;20047;-25
2022/11/09 04:25:47;;;;;;;20.73;15.98;;;15.60;99.90;;;;;;4590211;19;20447;-22
2022/11/09 04:27:18;;;;;;;20.73;16.40;;;15.60;99.90;;;;;;4591320;19;20108;-24
2022/11/09 04:28:49;;;;;;;21.40;16.80;;;15.60;99.90;;;;;;4591285;19;20007;-24
2022/11/09 04:30:20;;;;;;;20.83;15.85;;;15.60;99.90;;;;;;4591775;19;20090;-23
2022/11/09 04:31:51;;;;;;;22.10;17.42;;;15.60;99.90;;;;;;4590616;19;20119;-23
2022/11/09 04:33:22;;;;;;;18.88;15.68;;;15.60;99.90;;;;;;4590357;19;20471;-23
2022/11/09 04:34:53;;;;;;;21.13;16.02;;;15.60;99.90;;;;;;4591324;19;20013;-23
2022/11/09 04:36:24;;;;;;;19.17;16.00;;;15.70;99.90;;;;;;4591062;19;20460;-22
2022/11/09 04:38:00;;;;;;;19.98;15.90;;;15.60;99.90;;;;;;4589257;19;20055;-23
2022/11/09 04:39:32;;;;;;;20.80;16.40;;;15.60;99.90;;;;;;4590519;19;20352;-22
2022/11/09 04:41:03;;;;;;;20.63;15.80;;;15.60;99.90;;;;;;4591376;19;20017;-24
2022/11/09 04:42:34;;;;;;;20.10;15.88;;;15.60;99.90;;;;;;4589527;19;20007;-23
2022/11/09 04:44:05;;;;;;;20.50;16.55;;;15.60;99.90;;;;;;4589984;19;20460;-22
2022/11/09 04:45:36;;;;;;;20.15;16.02;;;15.60;99.90;;;;;;4589417;19;20020;-23
2022/11/09 04:47:07;;;;;;;22.95;17.45;;;15.60;99.90;;;;;;4589390;19;20015;-23
2022/11/09 04:48:38;;;;;;;21.45;15.95;;;15.60;99.90;;;;;;4589705;19;20015;-23
2022/11/09 04:50:10;;;;;;;18.20;15.68;;;15.60;99.90;;;;;;4590509;19;20034;-23
2022/11/09 04:51:41;;;;;;;19.55;15.07;;;15.60;99.90;;;;;;4589213;19;20014;-23
2022/11/09 04:53:12;;;;;;;20.40;16.27;;;15.60;99.90;;;;;;4589698;19;20497;-23
2022/11/09 04:54:43;;;;;;;20.52;16.00;;;15.60;99.90;;;;;;4590241;19;20013;-22
2022/11/09 04:56:14;;;;;;;19.77;15.65;;;15.60;99.90;;;;;;4592310;19;20418;-22
2022/11/09 04:57:49;;;;;;;21.13;16.38;;;15.60;99.90;;;;;;4590700;19;20003;-22
2022/11/09 04:59:20;;;;;;;20.88;15.40;;;15.60;99.90;;;;;;4591134;19;20027;-23
2022/11/09 05:00:52;;;;;;;20.05;15.40;;;15.60;99.90;;;;;;4590211;19;20007;-22
2022/11/09 05:02:23;;;;;;;20.27;15.73;;;15.60;99.90;;;;;;4590175;19;20014;-22
2022/11/09 05:03:54;;;;;;;19.05;15.50;;;15.60;99.90;;;;;;4590471;19;20105;-24
2022/11/09 05:05:25;;;;;;;20.40;16.40;;;15.60;99.90;;;;;;4590815;19;20007;-22
2022/11/09 05:06:56;;;;;;;21.88;16.63;;;15.60;99.90;;;;;;4589963;19;20010;-22
2022/11/09 05:08:27;;;;;;;20.85;16.05;;;15.60;99.90;;;;;;4590151;19;20394;-23
2022/11/09 05:09:59;;;;;;;18.38;15.95;;;15.60;99.90;;;;;;4590004;19;20017;-23
2022/11/09 05:11:30;;;;;;;21.45;16.35;;;15.60;99.90;;;;;;4590434;19;20037;-26
2022/11/09 05:13:05;;;;;;;19.80;16.08;;;15.60;99.90;;;;;;4588405;19;20026;-23
2022/11/09 05:14:36;;;;;;;21.73;16.30;;;15.60;99.90;;;;;;4588998;19;20014;-23
2022/11/09 05:16:08;;;;;;;;;;;15.60;99.90;;;;;;4590839;19;20464;-23
2022/11/09 05:17:39;;;;;;;21.50;16.27;;;15.60;99.90;;;;;;4589819;19;19915;-23
2022/11/09 05:19:10;;;;;;;20.75;16.58;;;15.60;99.90;;;;;;4588912;19;20002;-22
2022/11/09 05:20:41;;;;;;;17.65;14.75;;;15.60;99.90;;;;;;4589880;19;20026;-24
2022/11/09 05:24:01;;;;;;;20.35;16.50;;;15.60;99.90;;;;;;4589607;19;20003;-23
2022/11/09 05:25:33;;;;;;;20.35;16.20;;;15.60;99.90;;;;;;4593499;19;20010;-23
2022/11/09 05:27:04;;;;;;;19.67;15.63;;;15.60;99.90;;;;;;4594940;19;20035;-25
2022/11/09 05:28:35;;;;;;;18.63;16.10;;;15.60;99.90;;;;;;4594955;19;19999;-22
2022/11/09 05:30:06;;;;;;;22.52;18.50;;;15.60;99.90;;;;;;4594340;19;20006;-23
2022/11/09 05:31:38;;;;;;;23.13;17.83;;;15.60;99.90;;;;;;4594760;19;20062;-23
2022/11/09 05:33:10;;;;;;;21.95;17.48;;;15.60;99.90;;;;;;4595233;19;20030;-24
2022/11/09 05:34:41;;;;;;;24.35;18.63;;;15.60;99.90;;;;;;4595575;19;20082;-24
2022/11/09 05:36:12;;;;;;;22.80;18.67;;;15.60;99.90;;;;;;4595863;19;20348;-24
2022/11/09 05:37:46;;;;;;;24.60;19.05;;;15.60;99.90;;;;;;4596269;19;20014;-22
2022/11/09 05:39:18;;;;;;;25.73;19.52;;;15.60;99.90;;;;;;4595240;19;20102;-23
2022/11/09 05:40:50;;;;;;;24.45;18.83;;;15.70;99.90;;;;;;4595921;19;20010;-23
2022/11/09 05:42:23;;;;;;;26.65;19.95;;;15.70;99.90;;;;;;4596438;19;20030;-22
2022/11/09 05:43:54;;;;;;;24.02;19.15;;;15.70;99.90;;;;;;4595476;19;20472;-24
2022/11/09 05:45:25;;;;;;;23.95;17.58;;;15.70;99.90;;;;;;4594116;19;20014;-22
2022/11/09 05:46:56;;;;;;;21.25;17.55;;;15.70;99.90;;;;;;4595529;19;20475;-23
2022/11/09 05:48:27;;;;;;;22.60;18.30;;;15.70;99.90;;;;;;4595139;19;20015;-23
2022/11/09 05:49:59;;;;;;;22.67;19.35;;;15.70;99.90;;;;;;4596134;19;20027;-24
2022/11/09 05:51:30;;;;;;;21.83;18.20;;;15.70;99.90;;;;;;4596188;19;20034;-22
2022/11/09 05:53:01;;;;;;;21.33;17.88;;;15.70;99.90;;;;;;4594805;19;20014;-23
2022/11/09 05:54:32;;;;;;;20.98;17.75;;;15.70;99.90;;;;;;4593782;19;20038;-23
2022/11/09 05:56:10;;;;;;;23.15;18.50;;;15.70;99.90;;;;;;4594297;19;20017;-24
2022/11/09 05:57:41;;;;;;;20.70;16.52;;;15.70;99.90;;;;;;4594782;19;20023;-23
2022/11/09 05:59:12;;;;;;;21.45;17.48;;;15.70;99.90;;;;;;4593764;19;20025;-23
2022/11/09 06:00:44;;;;;;;22.73;17.45;;;15.70;99.90;;;;;;4593939;19;20476;-24
2022/11/09 06:02:15;;;;;;;19.70;16.83;;;15.70;99.90;;;;;;4594367;19;20038;-23
2022/11/09 06:03:46;;;;;;;21.70;17.55;;;15.70;99.90;;;;;;4593483;19;20003;-22
2022/11/09 06:05:19;;;;;;;20.23;16.95;;;15.70;99.90;;;;;;4591951;19;20540;-22
2022/11/09 06:06:50;;;;;;;21.73;17.92;;;15.70;99.90;;;;;;4594166;19;20014;-24
2022/11/09 06:08:21;;;;;;;21.85;17.25;;;15.70;99.90;;;;;;4593020;19;20006;-23
2022/11/09 06:09:52;;;;;;;20.98;18.60;;;15.70;99.90;;;;;;4593330;19;20468;-23
2022/11/09 06:11:23;;;;;;;19.63;16.27;;;15.70;99.90;;;;;;4593778;19;20006;-22
2022/11/09 06:12:54;;;;;;;20.95;17.30;;;15.70;99.90;;;;;;4592065;19;20043;-24
2022/11/09 06:14:25;;;;;;;21.17;18.00;;;15.70;99.90;;;;;;4593109;19;20019;-25
2022/11/09 06:15:59;;;;;;;21.65;17.83;;;15.70;99.90;;;;;;4593449;19;20464;-23
2022/11/09 06:17:30;;;;;;;20.27;16.88;;;15.70;99.90;;;;;;4592369;19;20015;-22
2022/11/09 06:19:01;;;;;;;22.23;17.50;;;15.70;99.90;;;;;;4593166;19;20011;-24
2022/11/09 06:20:32;;;;;;;21.35;17.83;;;15.70;99.90;;;;;;4593456;19;20018;-24
2022/11/09 06:22:03;;;;;;;22.63;17.10;;;15.70;99.90;;;;;;4592234;19;20480;-24
2022/11/09 06:23:34;;;;;;;20.48;17.95;;;15.70;99.90;;;;;;4593085;19;20007;-27
2022/11/09 06:25:06;;;;;;;22.05;18.02;;;15.70;99.90;;;;;;4593866;19;20357;-23
2022/11/09 06:26:37;;;;;;;;;;;15.70;99.90;;;;;;4594510;19;20061;-24
2022/11/09 06:28:08;;;;;;;24.50;20.02;;;15.80;99.90;;;;;;4593463;19;19914;-23
2022/11/09 06:29:40;;;;;;;21.92;17.50;;;15.90;99.90;;;;;;4593540;19;20014;-24
2022/11/09 06:31:14;;;;;;;21.13;18.65;;;15.90;99.90;;;;;;4593526;19;20390;-23
2022/11/09 06:32:45;;;;;;;23.88;19.42;;;15.90;99.90;;;;;;4592974;19;20006;-23
2022/11/09 06:34:16;;;;;;;22.20;17.75;;;15.90;99.90;;;;;;4593291;19;20024;-25
2022/11/09 06:35:47;;;;;;;23.63;18.98;;;16.00;99.90;;;;;;4593780;19;20011;-22
2022/11/09 06:37:19;;;;;;;;;;;16.00;99.90;;;;;;4592374;19;20010;-23
2022/11/09 06:38:50;;;;;;;21.38;17.48;;;16.00;99.90;;;;;;4593108;19;19925;-25
2022/11/09 06:40:21;;;;;;;23.27;18.77;;;16.00;99.90;;;;;;4592072;19;20088;-23
2022/11/09 06:41:53;;;;;;;22.33;19.42;;;16.00;99.90;;;;;;4590733;19;20007;-22
2022/11/09 06:43:24;;;;;;;;;;;16.00;99.90;;;;;;4593109;19;20341;-27
2022/11/09 06:44:55;;;;;;;22.33;18.38;;;15.90;99.90;;;;;;4592653;19;19979;-22
2022/11/09 06:46:26;;;;;;;22.92;19.75;;;16.00;99.90;;;;;;4593023;19;20007;-22
2022/11/09 06:47:59;;;;;;;20.48;17.83;;;16.00;99.90;;;;;;4592915;19;20468;-22
2022/11/09 06:49:31;;;;;;;21.85;17.65;;;16.00;99.90;;;;;;4592703;19;20006;-24
2022/11/09 06:51:04;;;;;;;21.70;18.48;;;15.90;99.90;;;;;;4593054;19;20011;-24
2022/11/09 06:52:35;;;;;;;22.08;18.38;;;16.00;99.90;;;;;;4591559;19;20394;-23
2022/11/09 06:54:06;;;;;;;21.27;18.42;;;15.90;99.90;;;;;;4591006;19;20010;-22
2022/11/09 06:55:37;;;;;;;20.73;17.02;;;15.90;99.90;;;;;;4592433;19;20014;-25
2022/11/09 06:57:08;;;;;;;21.30;17.15;;;15.90;99.90;;;;;;4592823;19;20010;-28
2022/11/09 06:58:39;;;;;;;22.15;19.02;;;15.90;99.90;;;;;;4593423;19;20355;-23
2022/11/09 07:00:11;;;;;;;20.38;17.55;;;15.90;99.90;;;;;;4593616;19;20007;-25
2022/11/09 07:01:42;;;;;;;22.73;18.02;;;15.90;99.90;;;;;;4592603;19;20028;-23
2022/11/09 07:03:18;;;;;;;20.55;18.17;;;15.90;99.90;;;;;;4591675;19;20066;-23
2022/11/09 07:04:52;;;;;;;22.00;17.95;;;15.90;99.90;;;;;;4592687;19;20019;-24
2022/11/09 07:06:23;;;;;;;20.67;17.15;;;15.90;99.90;;;;;;4592761;19;20345;-23
2022/11/09 07:07:55;;;;;;;24.75;19.65;;;16.00;99.90;;;;;;4591169;19;20021;-25
2022/11/09 07:09:26;;;;;;;;;;;15.90;99.90;;;;;;4592052;19;20510;-25
2022/11/09 07:11:11;;;;;;;22.92;18.70;;;15.90;99.90;;;;;;4590856;19;20384;-24
2022/11/09 07:12:42;;;;;;;22.17;17.92;;;15.90;99.90;;;;;;4591556;19;20111;-24
2022/11/09 07:14:14;;;;;;;22.33;18.92;;;15.90;99.90;;;;;;4591008;19;20010;-23
2022/11/09 07:15:51;;;;;;;23.02;18.35;;;15.90;99.90;;;;;;4592002;19;20100;-23
2022/11/09 07:17:22;;;;;;;21.00;17.65;;;16.00;99.90;;;;;;4589962;19;20014;-26
2022/11/09 07:18:54;;;;;;;20.95;17.98;;;16.00;99.90;;;;;;4590480;19;20334;-26
2022/11/09 07:20:26;;;;;;;24.17;19.48;;;16.00;99.90;;;;;;4589938;19;20349;-23
2022/11/09 07:21:57;;;;;;;22.83;18.63;;;16.10;99.90;;;;;;4589787;19;20018;-24
2022/11/09 07:23:28;;;;;;;22.08;18.85;;;16.10;99.90;;;;;;4589846;19;20367;-23
2022/11/09 07:25:00;;;;;;;22.17;19.75;;;16.20;99.90;;;;;;4590100;19;20014;-23
2022/11/09 07:26:31;;;;;;;20.55;18.40;;;16.20;99.90;;;;;;4589835;19;20044;-25
2022/11/09 07:28:04;;;;;;;22.55;18.08;;;16.30;99.90;;;;;;4589833;19;20014;-24
2022/11/09 07:29:35;;;;;;;22.05;18.35;;;16.30;99.90;;;;;;4589986;19;19998;-26
2022/11/09 07:31:06;;;;;;;21.10;17.80;;;16.30;99.90;;;;;;4589740;19;20019;-24
2022/11/09 07:32:37;;;;;;;;;;;16.40;99.90;;;;;;4590701;19;20070;-24
2022/11/09 07:34:08;;;;;;;21.17;17.52;;;16.40;99.90;;;;;;4588969;19;19926;-23
2022/11/09 07:35:40;;;;;;;22.35;18.77;;;16.50;99.90;;;;;;4589857;19;20481;-23
2022/11/09 07:37:11;;;;;;;20.42;17.13;;;16.50;99.90;;;;;;4589598;19;20011;-21
2022/11/09 07:38:42;;;;;;;21.48;17.67;;;16.50;99.90;;;;;;4589590;19;20034;-22
2022/11/09 07:40:14;;;;;;;22.73;16.88;;;16.50;99.90;;;;;;4589625;19;20380;-26
2022/11/09 07:41:47;;;;;;;21.27;17.23;;;16.50;99.90;;;;;;4590001;19;20026;-23
2022/11/09 07:43:19;;;;;;;19.52;16.67;;;16.50;99.90;;;;;;4589385;19;20010;-25
2022/11/09 07:44:50;;;;;;;20.48;17.02;;;16.50;99.90;;;;;;4589629;19;20010;-27
2022/11/09 07:46:21;;;;;;;21.63;17.25;;;16.50;99.90;;;;;;4589278;19;20029;-23
2022/11/09 07:47:59;;;;;;;21.55;16.95;;;16.50;99.90;;;;;;4589836;19;20007;-23
2022/11/09 07:49:31;;;;;;;19.33;17.17;;;16.40;99.90;;;;;;4591721;19;20490;-24